Latest Coastal Weather Observations for Derby

IDW60701

Issued at 10:55 am WST Monday 24 November 2014 (issued every 10 minutes, with the page automatically refreshed every 10 minutes)

About coastal observations | Map of coastal stations | Coastal observations for WA | Marine services | Other Formats
Station Details ID: 003032 Name: DERBY AERO Lat: -17.37 Lon: 123.66 Height: 6.2 m
Data from the previous 72 hours. | See also: Recent months at Derby
Date/Time
WST
Temp

°C
Wind Pressure Rain
since 9am
mm
Weather Cloud Vis
km
Sea
Height
m
Swell
Dir
 
Speed
knots
Gust
knots
hPa Trend Height
m
Period
s
Dir
24/10:30am 37.3 WNW 9 12 1009.7 - 0.0 - - - - - - -
24/10:00am 36.9 WSW 6 12 1010.2 - 0.0 - - - - - - -
24/09:30am 35.8 W 7 10 1010.5 - 0.0 - - - - - - -
24/09:00am 35.2 W 5 8 1010.7 - 0.0 - - - - - - -
24/08:30am 34.6 WNW 5 9 1010.9 - 0.0 - - - - - - -
24/08:00am 33.0 NW 4 8 1011.0 - 0.0 - - - - - - -
24/07:30am 31.7 NW 5 8 1010.9 - 0.0 - - - - - - -
24/07:00am 30.6 NW 6 7 1010.8 - 0.0 - - - - - - -
24/06:30am 30.2 NNW 4 5 1010.5 - 0.0 - - - - - - -
24/06:00am 29.1 NNW 3 4 1010.2 - 0.0 - - - - - - -
24/05:30am 28.1 N 4 6 1009.8 - 0.0 - - - - - - -
24/05:00am 28.3 N 5 6 1009.6 - 0.0 - - - - - - -
24/04:30am 28.3 N 5 5 1009.4 - 0.0 - - - - - - -
24/04:00am 28.4 N 6 7 1009.1 - 0.0 - - - - - - -
24/03:30am 28.4 N 5 6 1009.0 - 0.0 - - - - - - -
24/03:00am 28.3 N 5 6 1008.9 - 0.0 - - - - - - -
24/02:30am 28.6 N 6 7 1009.2 - 0.0 - - - - - - -
24/02:00am 28.4 NNE 5 6 1009.3 - 0.0 - - - - - - -
24/01:30am 28.6 N 2 5 1009.4 - 0.0 - - - - - - -
24/01:00am 29.0 N 4 5 1009.4 - 0.0 - - - - - - -
24/12:30am 29.0 N 5 6 1009.4 - 0.0 - - - - - - -
24/12:00am 29.4 NNE 5 6 1009.7 - 0.0 - - - - - - -
 
Date/Time
WST
Temp

°C
Wind Pressure Rain
since 9am
mm
Weather Cloud Vis
km
Sea
Height
m
Swell
Dir
 
Speed
knots
Gust
knots
hPa Trend Height
m
Period
s
Dir
23/11:30pm 29.8 CALM 0 3 1009.8 - 0.0 - - - - - - -
23/11:00pm 30.2 WSW 5 7 1009.9 - 0.0 - - - - - - -
23/10:30pm 31.3 W 4 5 1010.1 - 0.0 - - - - - - -
23/10:00pm 31.9 WSW 6 9 1010.0 - 0.0 - - - - - - -
23/09:30pm 32.6 WSW 9 12 1009.7 - 0.0 - - - - - - -
23/09:00pm 32.6 WSW 7 8 1009.3 - 0.0 - - - - - - -
23/08:30pm 32.7 W 7 8 1008.7 - 0.0 - - - - - - -
23/08:00pm 32.9 WNW 8 10 1008.3 - 0.0 - - - - - - -
23/07:30pm 33.1 NW 11 13 1007.8 - 0.0 - - - - - - -
23/07:00pm 32.8 NNW 15 18 1007.1 - 0.0 - - - - - - -
23/06:30pm 32.8 NNW 17 21 1006.6 - 0.0 - - - - - - -
23/06:00pm 32.9 NNW 17 21 1006.2 - 0.0 - - - - - - -
23/05:30pm 33.7 NNW 17 20 1005.9 - 0.0 - - - - - - -
23/05:00pm 34.5 NNW 18 21 1005.4 - 0.0 - - - - - - -
23/04:30pm 35.7 NNW 17 21 1005.2 - 0.0 - - - - - - -
23/04:00pm 37.5 NNW 16 18 1005.0 - 0.0 - - - - - - -
23/03:30pm 38.0 NNW 15 18 1005.3 - 0.0 - - - - - - -
23/03:00pm 38.2 NNW 16 21 1005.7 - 0.0 - - - - - - -
23/02:30pm 39.6 NW 12 16 1005.9 - 0.0 - - - - - - -
23/02:00pm 38.8 NW 11 15 1006.4 - 0.0 - - - - - - -
23/01:30pm 38.6 NW 10 16 1006.6 - 0.0 - - - - - - -
23/01:00pm 39.2 NNW 10 15 1007.1 - 0.0 - - - - - - -
23/12:30pm 38.2 NW 11 15 1007.8 - 0.0 - - - - - - -
23/12:00pm 38.3 NNW 11 15 1008.4 - 0.0 - - - - - - -
23/11:30am 37.5 NNW 10 14 1008.8 - 0.0 - - - - - - -
23/11:00am 37.3 NW 11 15 1009.4 - 0.0 - - - - - - -
23/10:30am 37.2 NW 10 14 1009.9 - 0.0 - - - - - - -
23/10:00am 35.1 NW 8 12 1010.3 - 0.0 - - - - - - -
23/09:30am 34.2 NW 8 13 1010.7 - 0.0 - - - - - - -
23/09:00am 33.7 NW 7 11 1010.8 - 0.0 - - - - - - -
23/08:30am 32.4 NW 7 10 1011.0 - 0.0 - - - - - - -
23/08:00am 31.9 NW 9 11 1010.9 - 0.0 - - - - - - -
23/07:30am 30.9 NW 7 10 1010.9 - 0.0 - - - - - - -
23/07:00am 30.3 WNW 7 9 1011.0 - 0.0 - - - - - - -
23/06:30am 29.8 WNW 4 6 1010.7 - 0.0 - - - - - - -
23/06:00am 29.3 W 5 6 1010.3 - 0.0 - - - - - - -
23/05:30am 28.5 NW 4 5 1009.9 - 0.0 - - - - - - -
23/05:00am 28.6 NW 6 8 1009.6 - 0.0 - - - - - - -
23/04:30am 28.5 NW 6 7 1009.5 - 0.0 - - - - - - -
23/04:00am 28.7 NNW 7 9 1009.1 - 0.0 - - - - - - -
23/03:30am 28.7 NNW 9 10 1009.0 - 0.0 - - - - - - -
23/03:00am 28.9 NNW 9 10 1009.0 - 0.0 - - - - - - -
23/02:30am 28.8 N 8 10 1009.0 - 0.0 - - - - - - -
23/02:00am 28.9 N 8 10 1009.1 - 0.0 - - - - - - -
23/01:30am 29.0 N 10 13 1009.3 - 0.0 - - - - - - -
23/01:00am 29.2 NNE 8 13 1009.7 - 0.0 - - - - - - -
23/12:30am 28.9 N 8 10 1009.3 - 0.0 - - - - - - -
23/12:00am 29.0 NNE 7 9 1009.9 - 0.0 - - - - - - -
 
Date/Time
WST
Temp

°C
Wind Pressure Rain
since 9am
mm
Weather Cloud Vis
km
Sea
Height
m
Swell
Dir
 
Speed
knots
Gust
knots
hPa Trend Height
m
Period
s
Dir
22/11:30pm 29.3 NNE 6 7 1009.8 - 0.0 - - - - - - -
22/11:00pm 30.3 WNW 7 9 1009.5 - 0.0 - - - - - - -
22/10:30pm 30.7 NNW 5 7 1009.7 - 0.0 - - - - - - -
22/10:00pm 30.6 NNW 5 6 1009.5 - 0.0 - - - - - - -
22/09:30pm 31.1 N 5 5 1009.4 - 0.0 - - - - - - -
22/09:00pm 31.4 N 5 6 1009.2 - 0.0 - - - - - - -
22/08:30pm 31.9 NNW 4 5 1008.9 - 0.0 - - - - - - -
22/08:00pm 32.1 NNW 6 7 1008.6 - 0.0 - - - - - - -
22/07:30pm 32.0 N 7 9 1008.3 - 0.0 - - - - - - -
22/07:00pm 32.4 NNW 10 14 1007.7 - 0.0 - - - - - - -
22/06:30pm 33.1 NNW 11 13 1007.0 - 0.0 - - - - - - -
22/06:00pm 33.3 NW 10 12 1006.9 - 0.0 - - - - - - -
22/05:30pm 33.6 NW 13 15 1006.6 - 0.0 - - - - - - -
22/05:00pm 32.8 WNW 16 21 1006.4 - 0.0 - - - - - - -
22/04:30pm 33.9 NNW 17 21 1006.2 - 0.0 - - - - - - -
22/04:00pm 34.7 NNW 17 20 1006.1 - 0.0 - - - - - - -
22/03:30pm 35.6 NNW 17 20 1005.9 - 0.0 - - - - - - -
22/03:00pm 40.2 NW 14 19 1005.9 - 0.0 - - - - - - -
22/02:30pm 40.3 NW 13 18 1006.2 - 0.0 - - - - - - -
22/02:00pm 40.7 NW 15 20 1006.6 - 0.0 - - - - - - -
22/01:30pm 40.2 NW 14 20 1007.1 - 0.0 - - - - - - -
22/01:00pm 40.0 WNW 12 16 1007.7 - 0.0 - - - - - - -
22/12:30pm 40.0 WNW 9 12 1008.2 - 0.0 - - - - - - -
22/12:00pm 38.9 WNW 10 14 1008.6 - 0.0 - - - - - - -
22/11:30am 38.7 SW 7 10 1009.1 - 0.0 - - - - - - -
22/11:00am 38.2 W 8 12 1009.5 - 0.0 - - - - - - -
22/10:30am 37.2 SSW 7 11 1010.0 - 0.0 - - - - - - -
22/10:00am 37.0 W 7 11 1010.5 - 0.0 - - - - - - -
22/09:30am 35.5 SW 5 8 1010.7 - 0.0 - - - - - - -
22/09:00am 35.0 SSW 5 9 1010.8 - 0.0 - - - - - - -
22/08:30am 34.5 SW 6 7 1011.1 - 0.0 - - - - - - -
22/08:00am 33.0 SSW 5 8 1011.0 - 0.0 - - - - - - -
22/07:30am 32.5 WSW 2 4 1010.9 - 0.0 - - - - - - -
22/07:00am 31.3 WSW 5 6 1010.5 - 0.0 - - - - - - -
22/06:30am 30.7 S 4 6 1010.2 - 0.0 - - - - - - -
22/06:00am 29.1 WSW 2 4 1009.9 - 0.0 - - - - - - -
22/05:30am 28.8 W 2 3 1009.6 - 0.0 - - - - - - -
22/05:00am 29.0 W 4 5 1009.2 - 0.0 - - - - - - -
22/04:30am 29.1 NNW 3 4 1009.0 - 0.0 - - - - - - -
22/04:00am 29.1 WNW 3 4 1008.6 - 0.0 - - - - - - -
22/03:30am 29.5 NNW 3 4 1008.5 - 0.0 - - - - - - -
22/03:00am 29.7 NW 4 4 1008.1 - 0.0 - - - - - - -
22/02:30am 30.1 NNW 4 5 1008.0 - 0.0 - - - - - - -
22/02:00am 30.3 NNW 5 6 1007.7 - 0.0 - - - - - - -
22/01:30am 30.2 NNW 5 7 1007.5 - 0.0 - - - - - - -
22/01:00am 30.2 NNW 6 8 1007.5 - 0.0 - - - - - - -
22/12:30am 29.9 NNW 7 8 1007.8 - 0.0 - - - - - - -
22/12:00am 29.6 N 6 8 1008.5 - 0.0 - - - - - - -
 
Date/Time
WST
Temp

°C
Wind Pressure Rain
since 9am
mm
Weather Cloud Vis
km
Sea
Height
m
Swell
Dir
 
Speed
knots
Gust
knots
hPa Trend Height
m
Period
s
Dir
21/11:30pm 29.8 NNE 8 11 1008.7 - 0.0 - - - - - - -
21/11:00pm 30.3 NNE 7 10 1008.9 - 0.0 - - - - - - -
21/10:30pm 31.4 NW 6 8 1008.9 - 0.0 - - - - - - -
21/10:00pm 31.4 N 8 10 1008.9 - 0.0 - - - - - - -
21/09:30pm 31.4 N 9 11 1009.0 - 0.0 - - - - - - -
21/09:00pm 31.8 NNW 9 11 1008.7 - 0.0 - - - - - - -
21/08:30pm 31.9 N 8 10 1008.7 - 0.0 - - - - - - -
21/08:00pm 31.8 N 8 10 1008.4 - 0.0 - - - - - - -
21/07:30pm 31.6 N 9 13 1007.9 - 0.0 - - - - - - -
21/07:00pm 31.7 NNW 13 15 1007.3 - 0.0 - - - - - - -
21/06:30pm 31.9 NNW 13 18 1007.0 - 0.0 - - - - - - -
21/06:00pm 32.2 NW 14 18 1006.7 - 0.0 - - - - - - -
21/05:30pm 34.0 NNW 14 17 1006.5 - 0.0 - - - - - - -
21/05:00pm 36.1 NNW 12 14 1006.1 - 0.0 - - - - - - -
21/04:30pm 37.2 NW 9 11 1005.9 - 0.0 - - - - - - -
21/04:00pm 38.1 NW 10 12 1006.0 - 0.0 - - - - - - -
21/03:30pm 38.6 WNW 8 11 1006.1 - 0.0 - - - - - - -
21/03:00pm 38.6 WNW 8 12 1006.4 - 0.0 - - - - - - -
21/02:30pm 39.3 SW 9 16 1006.7 - 0.0 - - - - - - -
21/02:00pm 39.6 SW 7 11 1007.2 - 0.0 - - - - - - -
21/01:30pm 37.9 WSW 10 13 1007.4 - 0.0 - - - - - - -
21/01:00pm 36.7 WNW 5 8 1008.4 - 0.0 - - - - - - -
21/12:30pm 36.9 WSW 7 10 1008.6 - 0.0 - - - - - - -
21/12:00pm 36.7 WSW 7 11 1008.9 - 0.0 - - - - - - -
21/11:30am 36.4 SSW 8 13 1009.2 - 0.0 - - - - - - -
21/11:00am 35.7 W 8 11 1009.8 - 0.0 - - - - - - -

Other Formats:

Comma delimited format used in spreadsheet applications
http://www.bom.gov.au/fwo/IDW60701/IDW60701.95205.axf

JavaScript Object Notation format (JSON) in row-major order
http://www.bom.gov.au/fwo/IDW60701/IDW60701.95205.json